createdAt,value
2017-02-01T00:01:02.073Z,0
2017-02-01T00:02:15.807Z,0
2017-02-01T00:03:30.161Z,0
2017-02-01T00:04:44.534Z,0
2017-02-01T00:05:58.892Z,0
2017-02-01T00:07:13.248Z,0
2017-02-01T00:08:26.973Z,0
2017-02-01T00:09:41.365Z,0
2017-02-01T00:10:55.734Z,0
2017-02-01T00:12:10.092Z,0
2017-02-01T00:13:24.738Z,0
2017-02-01T00:14:39.240Z,0
2017-02-01T00:15:53.600Z,0
2017-02-01T00:17:08.025Z,0
2017-02-01T00:18:21.730Z,0
2017-02-01T00:19:36.101Z,0
2017-02-01T00:20:49.852Z,0
2017-02-01T00:22:03.800Z,0
2017-02-01T00:23:18.174Z,0
2017-02-01T00:24:31.915Z,0
2017-02-01T00:25:46.290Z,0
2017-02-01T00:27:00.659Z,0
2017-02-01T00:28:13.735Z,0
2017-02-01T00:29:28.107Z,0
2017-02-01T00:30:42.451Z,0
2017-02-01T00:31:56.801Z,0
2017-02-01T00:33:11.176Z,0
2017-02-01T00:34:25.546Z,0
2017-02-01T00:35:39.894Z,0
2017-02-01T00:36:54.259Z,0
2017-02-01T00:38:08.610Z,0
2017-02-01T00:39:22.359Z,0
2017-02-01T00:40:36.708Z,0
2017-02-01T00:41:51.084Z,0
2017-02-01T00:43:05.437Z,0
2017-02-01T00:44:19.152Z,0
2017-02-01T00:45:33.509Z,0
2017-02-01T00:46:47.882Z,0
2017-02-01T00:48:02.241Z,0
2017-02-01T00:49:15.986Z,0
2017-02-01T00:50:29.706Z,0
2017-02-01T00:51:44.109Z,0
2017-02-01T00:52:58.768Z,0
2017-02-01T00:54:13.121Z,0
2017-02-01T00:55:27.555Z,0
2017-02-01T00:56:41.888Z,0
2017-02-01T00:57:56.245Z,0
2017-02-01T00:59:10.597Z,0
2017-02-01T01:00:24.979Z,0
2017-02-01T01:01:39.329Z,0
2017-02-01T01:02:53.704Z,0
2017-02-01T01:04:08.068Z,0
2017-02-01T01:05:22.489Z,0
2017-02-01T01:06:36.870Z,0
2017-02-01T01:07:51.228Z,0
2017-02-01T01:09:05.576Z,0
2017-02-01T01:10:19.919Z,0
2017-02-01T01:11:34.299Z,0
2017-02-01T01:12:48.029Z,0
2017-02-01T01:14:02.436Z,0
2017-02-01T01:15:16.817Z,0
2017-02-01T01:16:30.553Z,0
2017-02-01T01:17:44.943Z,0
2017-02-01T01:18:59.294Z,0
2017-02-01T01:20:13.681Z,0
2017-02-01T01:21:28.040Z,0
2017-02-01T01:22:42.421Z,0
2017-02-01T01:23:56.768Z,0
2017-02-01T01:25:11.099Z,0
2017-02-01T01:26:25.492Z,0
2017-02-01T01:27:39.865Z,0
2017-02-01T01:28:54.233Z,0
2017-02-01T01:30:08.619Z,0
2017-02-01T01:31:22.986Z,0
2017-02-01T01:32:36.689Z,0
2017-02-01T01:33:51.030Z,0
2017-02-01T01:35:05.385Z,0
2017-02-01T01:36:19.753Z,0
2017-02-01T01:37:34.114Z,0
2017-02-01T01:38:48.525Z,0
2017-02-01T01:40:02.852Z,0
2017-02-01T01:41:17.182Z,0
2017-02-01T01:42:31.244Z,0
2017-02-01T01:43:45.603Z,0
2017-02-01T01:44:59.976Z,0
2017-02-01T01:46:13.677Z,0
2017-02-01T01:47:28.070Z,0
2017-02-01T01:48:42.428Z,0
2017-02-01T01:49:56.786Z,0
2017-02-01T01:51:11.154Z,0
2017-02-01T01:52:25.513Z,0
2017-02-01T01:53:39.891Z,0
2017-02-01T01:54:54.258Z,0
2017-02-01T01:56:08.672Z,0
2017-02-01T01:57:23.039Z,0
2017-02-01T01:58:37.419Z,0
2017-02-01T01:59:51.816Z,0
2017-02-01T02:01:06.217Z,0
2017-02-01T02:02:20.636Z,0
2017-02-01T02:03:35.025Z,0
2017-02-01T02:04:49.434Z,0
2017-02-01T02:06:03.820Z,0
2017-02-01T02:07:18.503Z,0
2017-02-01T02:08:32.869Z,0
2017-02-01T02:09:47.246Z,0
2017-02-01T02:11:01.586Z,0
2017-02-01T02:12:15.994Z,0
2017-02-01T02:13:30.322Z,0
2017-02-01T02:14:44.715Z,0
2017-02-01T02:15:59.101Z,0
2017-02-01T02:17:13.476Z,0
2017-02-01T02:18:27.863Z,0
2017-02-01T02:19:42.200Z,0
2017-02-01T02:20:56.552Z,0
2017-02-01T02:22:10.263Z,0
2017-02-01T02:23:24.623Z,0
2017-02-01T02:24:39.018Z,0
2017-02-01T02:25:53.444Z,0
2017-02-01T02:27:07.852Z,0
2017-02-01T02:28:22.217Z,0
2017-02-01T02:29:35.964Z,0
2017-02-01T02:30:50.332Z,0
2017-02-01T02:32:04.677Z,0
2017-02-01T02:33:19.027Z,0
2017-02-01T02:34:32.750Z,0
2017-02-01T02:35:47.116Z,0
2017-02-01T02:37:01.453Z,0
2017-02-01T02:38:15.778Z,0
2017-02-01T02:39:30.147Z,0
2017-02-01T02:40:44.550Z,0
2017-02-01T02:41:58.933Z,0
2017-02-01T02:43:13.299Z,0
2017-02-01T02:44:27.688Z,0
2017-02-01T02:45:42.068Z,0
2017-02-01T02:46:56.500Z,0
2017-02-01T02:48:10.861Z,0
2017-02-01T02:49:25.211Z,0
2017-02-01T02:50:39.579Z,0
2017-02-01T02:51:53.947Z,0
2017-02-01T02:53:08.320Z,0
2017-02-01T02:54:22.052Z,0
2017-02-01T02:55:36.441Z,0
2017-02-01T02:56:50.808Z,0
2017-02-01T02:58:05.134Z,0
2017-02-01T02:59:19.495Z,0
2017-02-01T03:00:33.912Z,0
2017-02-01T03:01:48.297Z,0
2017-02-01T03:03:02.694Z,0
2017-02-01T03:04:17.056Z,0
2017-02-01T03:05:31.447Z,0
2017-02-01T03:06:45.844Z,0
2017-02-01T03:08:00.224Z,0
2017-02-01T03:09:13.941Z,0
2017-02-01T03:10:28.311Z,0
2017-02-01T03:11:42.663Z,0
2017-02-01T03:12:57.010Z,0
2017-02-01T03:14:11.389Z,0
2017-02-01T03:15:25.754Z,0
2017-02-01T03:16:39.463Z,0
2017-02-01T03:17:53.790Z,0
2017-02-01T03:19:08.157Z,0
2017-02-01T03:20:22.552Z,0
2017-02-01T03:21:36.297Z,0
2017-02-01T03:22:50.666Z,0
2017-02-01T03:24:05.050Z,0
2017-02-01T03:25:18.782Z,0
2017-02-01T03:26:33.132Z,0
2017-02-01T03:27:47.484Z,0
2017-02-01T03:29:01.877Z,0
2017-02-01T03:30:15.605Z,0
2017-02-01T03:31:30.030Z,0
2017-02-01T03:32:44.367Z,0
2017-02-01T03:33:58.732Z,0
2017-02-01T03:35:13.101Z,0
2017-02-01T03:36:27.504Z,0
2017-02-01T03:37:41.887Z,0
2017-02-01T03:38:56.251Z,0
2017-02-01T03:40:10.624Z,0
2017-02-01T03:41:25.019Z,0
2017-02-01T03:42:39.410Z,0
2017-02-01T03:43:53.788Z,0
2017-02-01T03:45:08.134Z,0
2017-02-01T03:46:22.517Z,0
2017-02-01T03:47:36.901Z,0
2017-02-01T03:48:51.294Z,0
2017-02-01T03:50:05.714Z,0
2017-02-01T03:51:18.835Z,0
2017-02-01T03:52:33.189Z,0
2017-02-01T03:53:46.919Z,0
2017-02-01T03:55:01.314Z,0
2017-02-01T03:56:15.733Z,0
2017-02-01T03:57:30.086Z,0
2017-02-01T03:58:44.468Z,0
2017-02-01T03:59:58.887Z,0
2017-02-01T04:01:13.278Z,0
2017-02-01T04:02:27.623Z,0
2017-02-01T04:03:41.981Z,0
2017-02-01T04:04:56.372Z,0
2017-02-01T04:06:10.117Z,0
2017-02-01T04:07:24.477Z,0
2017-02-01T04:08:38.181Z,0
2017-02-01T04:09:52.553Z,0
2017-02-01T04:11:06.951Z,0
2017-02-01T04:12:21.345Z,0
2017-02-01T04:13:35.692Z,0
2017-02-01T04:14:50.054Z,0
2017-02-01T04:16:04.440Z,0
2017-02-01T04:17:17.736Z,0
2017-02-01T04:18:32.111Z,0
2017-02-01T04:19:46.482Z,0
2017-02-01T04:21:00.851Z,0
2017-02-01T04:22:15.232Z,0
2017-02-01T04:23:29.599Z,0
2017-02-01T04:24:43.956Z,0
2017-02-01T04:25:57.693Z,0
2017-02-01T04:27:12.045Z,0
2017-02-01T04:28:26.406Z,0
2017-02-01T04:29:40.770Z,0
2017-02-01T04:30:55.141Z,0
2017-02-01T04:32:09.534Z,0
2017-02-01T04:33:23.900Z,0
2017-02-01T04:34:38.298Z,0
2017-02-01T04:35:52.670Z,0
2017-02-01T04:37:07.045Z,0
2017-02-01T04:38:21.398Z,0
2017-02-01T04:39:35.789Z,0
2017-02-01T04:40:50.152Z,0
2017-02-01T04:42:04.512Z,0
2017-02-01T04:43:18.915Z,0
2017-02-01T04:44:33.322Z,0
2017-02-01T04:45:47.656Z,0
2017-02-01T04:47:05.323Z,0
2017-02-01T04:48:19.733Z,0
2017-02-01T04:49:34.084Z,0
2017-02-01T04:50:48.461Z,0
2017-02-01T04:52:02.818Z,0
2017-02-01T04:53:17.174Z,0
2017-02-01T04:54:31.544Z,0
2017-02-01T04:55:45.918Z,0
2017-02-01T04:57:00.280Z,0
2017-02-01T04:58:14.047Z,0
2017-02-01T04:59:27.762Z,0
2017-02-01T05:00:42.138Z,0
2017-02-01T05:01:56.502Z,0
2017-02-01T05:03:10.881Z,0
2017-02-01T05:04:25.252Z,0
2017-02-01T05:05:38.966Z,0
2017-02-01T05:06:53.347Z,0
2017-02-01T05:08:07.719Z,0
2017-02-01T05:09:22.081Z,0
2017-02-01T05:10:36.483Z,0
2017-02-01T05:11:50.893Z,0
2017-02-01T05:13:05.230Z,0
2017-02-01T05:14:19.573Z,0
2017-02-01T05:15:33.289Z,0
2017-02-01T05:16:47.717Z,0
2017-02-01T05:18:02.078Z,0
2017-02-01T05:19:16.427Z,0
2017-02-01T05:20:30.103Z,0
2017-02-01T05:21:44.442Z,0
2017-02-01T05:22:58.808Z,0
2017-02-01T05:24:13.211Z,0
2017-02-01T05:25:27.594Z,0
2017-02-01T05:26:41.933Z,0
2017-02-01T05:27:56.303Z,0
2017-02-01T05:29:10.726Z,0
2017-02-01T05:30:25.097Z,0
2017-02-01T05:31:39.539Z,0
2017-02-01T05:32:53.882Z,0
2017-02-01T05:34:08.250Z,0
2017-02-01T05:35:22.627Z,0
2017-02-01T05:36:36.984Z,0
2017-02-01T05:37:51.329Z,0
2017-02-01T05:39:05.695Z,0
2017-02-01T05:40:20.039Z,0
2017-02-01T05:41:34.414Z,0
2017-02-01T05:42:48.770Z,0
2017-02-01T05:44:02.505Z,0
2017-02-01T05:45:16.215Z,0
2017-02-01T05:46:30.580Z,0
2017-02-01T05:47:44.324Z,0
2017-02-01T05:48:58.687Z,0
2017-02-01T05:50:13.072Z,0
2017-02-01T05:51:27.445Z,0
2017-02-01T05:52:41.179Z,0
2017-02-01T05:53:55.508Z,0
2017-02-01T05:55:09.921Z,0
2017-02-01T05:56:24.277Z,0
2017-02-01T05:57:37.996Z,0
2017-02-01T05:58:52.350Z,0
2017-02-01T06:00:06.742Z,0
2017-02-01T06:01:21.121Z,0
2017-02-01T06:02:35.534Z,0
2017-02-01T06:03:49.939Z,0
2017-02-01T06:05:04.320Z,0
2017-02-01T06:06:18.044Z,0
2017-02-01T06:07:32.394Z,0
2017-02-01T06:08:46.769Z,0
2017-02-01T06:10:01.126Z,0
2017-02-01T06:11:15.674Z,0
2017-02-01T06:12:30.024Z,0
2017-02-01T06:13:43.114Z,0
2017-02-01T06:14:57.463Z,0
2017-02-01T06:16:11.181Z,0
2017-02-01T06:17:25.519Z,0
2017-02-01T06:18:39.869Z,0
2017-02-01T06:19:54.299Z,0
2017-02-01T06:21:08.692Z,0
2017-02-01T06:22:23.100Z,0
2017-02-01T06:23:37.483Z,0
2017-02-01T06:24:51.866Z,0
2017-02-01T06:26:06.232Z,0
2017-02-01T06:27:20.015Z,0
2017-02-01T06:28:34.376Z,0
2017-02-01T06:29:48.784Z,0
2017-02-01T06:31:03.112Z,0
2017-02-01T06:32:16.851Z,0
2017-02-01T06:33:31.224Z,0
2017-02-01T06:34:45.739Z,0
2017-02-01T06:36:00.108Z,0
2017-02-01T06:37:13.821Z,0
2017-02-01T06:38:27.569Z,0
2017-02-01T06:39:41.944Z,0
2017-02-01T06:40:56.301Z,0
2017-02-01T06:42:10.664Z,0
2017-02-01T06:43:25.031Z,0
2017-02-01T06:44:39.416Z,0
2017-02-01T06:45:53.740Z,0
2017-02-01T06:47:07.470Z,0
2017-02-01T06:48:21.853Z,0
2017-02-01T06:49:36.228Z,0
2017-02-01T06:50:50.639Z,0
2017-02-01T06:52:05.021Z,0
2017-02-01T06:53:19.384Z,0
2017-02-01T06:54:33.772Z,0
2017-02-01T06:55:48.143Z,0
2017-02-01T06:57:02.522Z,0
2017-02-01T06:58:16.938Z,0
2017-02-01T06:59:31.334Z,0
2017-02-01T07:00:45.716Z,0
2017-02-01T07:01:59.454Z,0
2017-02-01T07:03:13.845Z,0
2017-02-01T07:04:28.236Z,0
2017-02-01T07:05:42.623Z,0
2017-02-01T07:06:56.996Z,0
2017-02-01T07:08:11.372Z,0
2017-02-01T07:09:25.791Z,0
2017-02-01T07:10:40.150Z,0
2017-02-01T07:11:54.511Z,0
2017-02-01T07:13:08.846Z,0
2017-02-01T07:14:22.562Z,0
2017-02-01T07:15:36.314Z,0
2017-02-01T07:16:50.679Z,0
2017-02-01T07:18:05.034Z,0
2017-02-01T07:19:19.401Z,0
2017-02-01T07:20:33.798Z,0
2017-02-01T07:21:47.511Z,0
2017-02-01T07:23:01.941Z,0
2017-02-01T07:24:16.273Z,0
2017-02-01T07:25:30.652Z,0
2017-02-01T07:26:45.022Z,0
2017-02-01T07:27:59.380Z,0
2017-02-01T07:29:13.726Z,0
2017-02-01T07:30:28.085Z,0
2017-02-01T07:31:41.790Z,0
2017-02-01T07:32:56.142Z,0
2017-02-01T07:34:09.882Z,0
2017-02-01T07:35:24.242Z,0
2017-02-01T07:36:38.619Z,0
2017-02-01T07:37:53.010Z,0
2017-02-01T07:39:06.717Z,0
2017-02-01T07:40:21.080Z,0
2017-02-01T07:41:35.461Z,0
2017-02-01T07:42:49.864Z,0
2017-02-01T07:44:04.227Z,0
2017-02-01T07:45:17.305Z,0
2017-02-01T07:46:31.728Z,0
2017-02-01T07:47:46.122Z,0
2017-02-01T07:48:59.840Z,0
2017-02-01T07:50:14.222Z,0
2017-02-01T07:51:28.632Z,0
2017-02-01T07:52:43.010Z,0
2017-02-01T07:53:57.604Z,0
2017-02-01T07:55:11.342Z,0
2017-02-01T07:56:25.729Z,0
2017-02-01T07:57:40.093Z,0
2017-02-01T07:58:54.476Z,0
2017-02-01T08:00:08.908Z,0
2017-02-01T08:01:23.278Z,0
2017-02-01T08:02:37.660Z,0
2017-02-01T08:03:52.235Z,0
2017-02-01T08:05:06.569Z,0
2017-02-01T08:06:20.926Z,0
2017-02-01T08:07:35.295Z,0
2017-02-01T08:08:49.633Z,0
2017-02-01T08:10:03.977Z,0
2017-02-01T08:11:17.712Z,0
2017-02-01T08:12:32.243Z,0
2017-02-01T08:13:46.676Z,0
2017-02-01T08:15:01.051Z,0
2017-02-01T08:16:15.418Z,0
2017-02-01T08:17:29.797Z,0
2017-02-01T08:18:43.567Z,0
2017-02-01T08:19:57.991Z,0
2017-02-01T08:21:12.342Z,0
2017-02-01T08:22:26.727Z,4
2017-02-01T08:23:41.085Z,4
2017-02-01T08:24:55.492Z,4
2017-02-01T08:26:09.894Z,8
2017-02-01T08:27:24.290Z,8
2017-02-01T08:28:38.697Z,12
2017-02-01T08:29:52.397Z,12
2017-02-01T08:31:06.797Z,20
2017-02-01T08:32:21.151Z,24
2017-02-01T08:33:35.530Z,36
2017-02-01T08:34:49.919Z,44
2017-02-01T08:36:03.662Z,60
2017-02-01T08:37:18.001Z,76
2017-02-01T08:38:31.715Z,96
2017-02-01T08:39:46.053Z,124
2017-02-01T08:41:00.442Z,156
2017-02-01T08:42:14.162Z,184
2017-02-01T08:43:28.612Z,212
2017-02-01T08:44:42.969Z,240
2017-02-01T08:45:57.846Z,264
2017-02-01T08:47:12.441Z,288
2017-02-01T08:48:26.856Z,316
2017-02-01T08:49:41.241Z,340
2017-02-01T08:50:55.656Z,376
2017-02-01T08:52:09.992Z,412
2017-02-01T08:53:24.401Z,452
2017-02-01T08:54:38.846Z,484
2017-02-01T08:55:53.221Z,516
2017-02-01T08:57:07.583Z,552
2017-02-01T08:58:21.940Z,596
2017-02-01T08:59:36.320Z,644
2017-02-01T09:00:50.674Z,688
2017-02-01T09:02:05.009Z,728
2017-02-01T09:03:18.721Z,764
2017-02-01T09:04:33.116Z,796
2017-02-01T09:05:47.458Z,840
2017-02-01T09:07:01.807Z,900
2017-02-01T09:08:16.198Z,968
2017-02-01T09:09:30.575Z,1036
2017-02-01T09:10:44.986Z,1100
2017-02-01T09:11:59.386Z,1180
2017-02-01T09:13:13.774Z,1320
2017-02-01T09:14:28.139Z,1488
2017-02-01T09:15:41.909Z,1632
2017-02-01T09:16:55.634Z,1796
2017-02-01T09:18:10.045Z,1912
2017-02-01T09:19:24.381Z,1972
2017-02-01T09:20:38.749Z,2120
2017-02-01T09:21:53.095Z,2212
2017-02-01T09:23:07.455Z,2268
2017-02-01T09:24:21.785Z,2352
2017-02-01T09:25:35.507Z,2388
2017-02-01T09:26:49.201Z,2404
2017-02-01T09:28:03.616Z,2356
2017-02-01T09:29:16.700Z,2212
2017-02-01T09:30:30.428Z,2096
2017-02-01T09:31:44.141Z,2052
2017-02-01T09:32:58.516Z,2072
2017-02-01T09:34:12.258Z,2156
2017-02-01T09:35:26.636Z,2412
2017-02-01T09:36:40.989Z,2692
2017-02-01T09:37:55.386Z,2964
2017-02-01T09:39:09.114Z,3184
2017-02-01T09:40:23.474Z,3368
2017-02-01T09:41:37.835Z,3584
2017-02-01T09:42:52.234Z,3744
2017-02-01T09:44:06.611Z,4192
2017-02-01T09:45:20.324Z,4644
2017-02-01T09:46:34.707Z,4888
2017-02-01T09:47:49.082Z,5232
2017-02-01T09:49:03.468Z,5640
2017-02-01T09:50:17.852Z,6304
2017-02-01T09:51:32.217Z,7064
2017-02-01T09:52:46.606Z,7944
2017-02-01T09:54:00.981Z,8828
2017-02-01T09:55:15.368Z,9592
2017-02-01T09:56:29.750Z,10512
2017-02-01T09:57:44.130Z,11188
2017-02-01T09:58:58.481Z,11876
2017-02-01T10:00:10.936Z,12512
2017-02-01T10:01:25.273Z,12892
2017-02-01T10:02:39.639Z,13476
2017-02-01T10:03:54.013Z,14076
2017-02-01T10:05:07.741Z,14620
2017-02-01T10:06:22.108Z,14444
2017-02-01T10:07:35.830Z,14436
2017-02-01T10:08:49.554Z,15180
2017-02-01T10:10:03.286Z,14896
2017-02-01T10:11:16.978Z,14936
2017-02-01T10:12:31.360Z,15064
2017-02-01T10:13:45.725Z,15620
2017-02-01T10:15:00.104Z,16144
2017-02-01T10:16:13.810Z,16696
2017-02-01T10:17:26.927Z,16988
2017-02-01T10:18:41.326Z,17536
2017-02-01T10:19:55.744Z,18112
2017-02-01T10:21:10.149Z,18816
2017-02-01T10:22:24.528Z,19456
2017-02-01T10:23:38.948Z,19840
2017-02-01T10:24:53.357Z,19808
2017-02-01T10:26:07.760Z,19584
2017-02-01T10:27:21.490Z,19712
2017-02-01T10:28:35.876Z,19904
2017-02-01T10:29:50.263Z,20096
2017-02-01T10:31:04.624Z,20128
2017-02-01T10:32:18.994Z,19968
2017-02-01T10:33:33.339Z,19872
2017-02-01T10:34:47.057Z,19872
2017-02-01T10:36:01.435Z,20064
2017-02-01T10:37:15.813Z,20352
2017-02-01T10:38:30.168Z,20512
2017-02-01T10:39:44.523Z,20480
2017-02-01T10:40:58.906Z,20192
2017-02-01T10:42:13.293Z,20064
2017-02-01T10:43:27.646Z,20384
2017-02-01T10:44:41.999Z,21376
2017-02-01T10:45:56.396Z,22976
2017-02-01T10:47:10.136Z,24992
2017-02-01T10:48:23.908Z,27008
2017-02-01T10:49:38.288Z,28960
2017-02-01T10:50:52.626Z,30144
2017-02-01T10:52:06.347Z,31200
2017-02-01T10:53:20.703Z,32320
2017-02-01T10:54:35.060Z,33568
2017-02-01T10:55:48.858Z,35456
2017-02-01T10:57:03.201Z,37792
2017-02-01T10:58:15.642Z,40320
2017-02-01T10:59:29.996Z,48352
2017-02-01T11:00:44.386Z,40064
2017-02-01T11:01:58.735Z,39968
2017-02-01T11:03:13.128Z,38752
2017-02-01T11:04:27.509Z,37696
2017-02-01T11:05:41.850Z,37312
2017-02-01T11:06:55.593Z,36544
2017-02-01T11:08:09.956Z,36032
2017-02-01T11:09:24.373Z,35936
2017-02-01T11:10:38.724Z,36608
2017-02-01T11:11:53.108Z,37536
2017-02-01T11:13:07.504Z,38208
2017-02-01T11:14:21.888Z,38496
2017-02-01T11:15:36.263Z,38624
2017-02-01T11:16:50.607Z,38560
2017-02-01T11:18:05.019Z,39136
2017-02-01T11:19:19.410Z,39296
2017-02-01T11:20:33.132Z,38016
2017-02-01T11:21:47.523Z,38208
2017-02-01T11:23:01.903Z,38176
2017-02-01T11:24:15.639Z,37728
2017-02-01T11:25:29.379Z,37696
2017-02-01T11:26:43.790Z,38208
2017-02-01T11:27:58.168Z,39072
2017-02-01T11:29:13.978Z,40128
2017-02-01T11:30:27.729Z,40512
2017-02-01T11:31:42.106Z,40640
2017-02-01T11:32:56.515Z,41152
2017-02-01T11:34:10.235Z,41664
2017-02-01T11:35:24.660Z,41824
2017-02-01T11:36:39.018Z,41504
2017-02-01T11:37:53.378Z,40832
2017-02-01T11:39:07.767Z,39072
2017-02-01T11:40:21.500Z,37536
2017-02-01T11:41:35.896Z,36096
2017-02-01T11:42:57.722Z,34912
2017-02-01T11:44:11.447Z,34272
2017-02-01T11:45:25.858Z,34112
2017-02-01T11:46:40.229Z,34432
2017-02-01T11:47:54.637Z,35424
2017-02-01T11:49:09.009Z,36832
2017-02-01T11:50:23.389Z,38272
2017-02-01T11:51:37.784Z,39808
2017-02-01T11:52:52.145Z,41280
2017-02-01T11:54:06.506Z,42752
2017-02-01T11:55:20.968Z,44672
2017-02-01T11:56:35.358Z,44192
2017-02-01T11:57:49.997Z,44928
2017-02-01T11:59:03.705Z,45792
2017-02-01T12:00:17.450Z,46784
2017-02-01T12:01:31.823Z,47360
2017-02-01T12:02:46.178Z,47840
2017-02-01T12:04:00.572Z,47488
2017-02-01T12:05:14.265Z,44800
2017-02-01T12:06:28.015Z,43392
2017-02-01T12:07:42.394Z,42432
2017-02-01T12:08:56.114Z,42016
2017-02-01T12:10:10.489Z,41792
2017-02-01T12:11:24.198Z,41248
2017-02-01T12:12:38.599Z,41056
2017-02-01T12:13:52.278Z,40896
2017-02-01T12:15:06.644Z,40640
2017-02-01T12:16:20.357Z,40448
2017-02-01T12:17:34.762Z,40256
2017-02-01T12:18:49.118Z,40192
2017-02-01T12:20:02.838Z,40352
2017-02-01T12:21:16.602Z,40704
2017-02-01T12:22:30.995Z,41120
2017-02-01T12:23:45.397Z,41600
2017-02-01T12:24:59.808Z,42144
2017-02-01T12:26:14.184Z,42784
2017-02-01T12:27:28.582Z,43392
2017-02-01T12:28:42.318Z,43584
2017-02-01T12:29:56.740Z,43424
2017-02-01T12:31:11.109Z,43072
2017-02-01T12:32:25.524Z,42848
2017-02-01T12:33:39.271Z,42880
2017-02-01T12:34:53.645Z,43168
2017-02-01T12:36:08.022Z,43584
2017-02-01T12:37:21.780Z,44096
2017-02-01T12:38:36.101Z,44992
2017-02-01T12:39:50.485Z,46432
2017-02-01T12:41:05.435Z,48032
2017-02-01T12:42:19.347Z,49664
2017-02-01T12:43:33.073Z,50752
2017-02-01T12:44:46.782Z,51424
2017-02-01T12:46:01.215Z,51872
2017-02-01T12:47:14.949Z,52224
2017-02-01T12:48:28.048Z,52416
2017-02-01T12:49:42.466Z,52576
2017-02-01T12:50:56.876Z,52672
2017-02-01T12:52:12.524Z,52640
2017-02-01T12:53:25.003Z,52512
2017-02-01T12:54:39.354Z,52576
2017-02-01T12:55:53.724Z,53056
2017-02-01T12:57:08.335Z,53856
2017-02-01T12:58:22.098Z,56032
2017-02-01T12:59:36.533Z,58528
2017-02-01T13:00:50.929Z,65376
2017-02-01T13:02:04.005Z,76704
2017-02-01T13:03:17.049Z,71744
2017-02-01T13:04:31.411Z,71072
2017-02-01T13:05:45.863Z,67072
2017-02-01T13:06:58.933Z,64832
2017-02-01T13:08:12.632Z,63776
2017-02-01T13:09:26.990Z,64512
2017-02-01T13:10:41.323Z,65056
2017-02-01T13:11:55.030Z,65600
2017-02-01T13:13:09.347Z,65216
2017-02-01T13:14:23.724Z,64608
2017-02-01T13:15:38.664Z,61088
2017-02-01T13:16:53.054Z,66464
2017-02-01T13:18:06.784Z,60128
2017-02-01T13:19:21.151Z,57696
2017-02-01T13:20:35.489Z,55808
2017-02-01T13:21:49.820Z,52928
2017-02-01T13:23:04.172Z,50208
2017-02-01T13:24:18.550Z,48064
2017-02-01T13:25:31.612Z,46816
2017-02-01T13:26:45.308Z,46464
2017-02-01T13:27:59.645Z,46784
2017-02-01T13:29:13.998Z,47872
2017-02-01T13:30:27.714Z,49600
2017-02-01T13:31:42.052Z,51520
2017-02-01T13:32:56.414Z,53248
2017-02-01T13:34:10.141Z,54656
2017-02-01T13:35:23.836Z,55232
2017-02-01T13:36:37.526Z,55360
2017-02-01T13:37:51.873Z,55264
2017-02-01T13:39:06.199Z,54080
2017-02-01T13:40:20.584Z,52704
2017-02-01T13:41:34.916Z,51520
2017-02-01T13:42:49.295Z,50784
2017-02-01T13:44:03.690Z,50336
2017-02-01T13:45:17.380Z,50144
2017-02-01T13:46:31.749Z,50208
2017-02-01T13:47:46.098Z,50688
2017-02-01T13:49:00.482Z,51200
2017-02-01T13:50:14.256Z,51968
2017-02-01T13:51:28.622Z,52544
2017-02-01T13:52:42.965Z,52864
2017-02-01T13:53:57.293Z,52768
2017-02-01T13:55:11.006Z,52576
2017-02-01T13:56:25.346Z,52736
2017-02-01T13:57:38.422Z,53280
2017-02-01T13:58:52.784Z,53792
2017-02-01T14:00:07.107Z,53888
2017-02-01T14:01:21.509Z,53792
2017-02-01T14:02:35.861Z,53760
2017-02-01T14:03:50.209Z,54112
2017-02-01T14:05:04.553Z,55200
2017-02-01T14:06:18.886Z,56800
2017-02-01T14:07:33.247Z,58496
2017-02-01T14:08:47.618Z,60000
2017-02-01T14:10:01.318Z,61120
2017-02-01T14:11:15.712Z,61632
2017-02-01T14:12:30.195Z,62336
2017-02-01T14:13:44.579Z,63520
2017-02-01T14:14:58.971Z,65120
2017-02-01T14:16:13.358Z,66592
2017-02-01T14:17:27.847Z,68352
2017-02-01T14:18:42.213Z,68544
2017-02-01T14:19:56.563Z,69216
2017-02-01T14:21:10.270Z,69216
2017-02-01T14:22:23.964Z,68832
2017-02-01T14:23:38.334Z,67680
2017-02-01T14:24:52.720Z,69952
2017-02-01T14:26:07.070Z,72288
2017-02-01T14:27:20.864Z,72128
2017-02-01T14:28:33.970Z,71712
2017-02-01T14:29:48.319Z,71296
2017-02-01T14:31:02.721Z,71040
2017-02-01T14:32:17.128Z,70688
2017-02-01T14:33:31.362Z,70240
2017-02-01T14:34:45.854Z,69568
2017-02-01T14:36:00.253Z,69376
2017-02-01T14:37:14.610Z,69344
2017-02-01T14:38:27.018Z,69920
2017-02-01T14:39:41.374Z,69664
2017-02-01T14:40:55.766Z,69088
2017-02-01T14:42:10.141Z,69024
2017-02-01T14:43:23.795Z,69408
2017-02-01T14:44:37.857Z,70912
2017-02-01T14:45:52.223Z,73696
2017-02-01T14:47:06.572Z,76896
2017-02-01T14:48:20.935Z,86912
2017-02-01T14:49:35.298Z,88416
2017-02-01T14:50:49.678Z,98848
2017-02-01T14:52:04.087Z,109376
2017-02-01T14:53:17.795Z,105792
2017-02-01T14:54:31.500Z,88960
2017-02-01T14:55:44.551Z,81152
2017-02-01T14:56:58.878Z,73376
2017-02-01T14:58:13.238Z,67296
2017-02-01T14:59:26.974Z,65792
2017-02-01T15:00:41.348Z,63168
2017-02-01T15:01:55.702Z,59968
2017-02-01T15:03:10.037Z,58400
2017-02-01T15:04:24.396Z,64640
2017-02-01T15:05:38.775Z,83936
2017-02-01T15:06:52.490Z,70560
2017-02-01T15:08:06.822Z,76832
2017-02-01T15:09:20.544Z,67360
2017-02-01T15:10:34.913Z,54464
2017-02-01T15:11:49.241Z,48416
2017-02-01T15:13:02.939Z,46208
2017-02-01T15:14:16.658Z,45120
2017-02-01T15:15:30.340Z,44448
2017-02-01T15:16:44.689Z,43360
2017-02-01T15:17:59.028Z,41152
2017-02-01T15:19:13.398Z,38848
2017-02-01T15:20:27.796Z,37312
2017-02-01T15:21:42.161Z,35168
2017-02-01T15:22:56.535Z,34816
2017-02-01T15:24:09.587Z,17696
2017-02-01T15:25:23.925Z,31552
2017-02-01T15:26:38.260Z,32320
2017-02-01T15:27:52.635Z,36640
2017-02-01T15:29:06.976Z,38304
2017-02-01T15:30:19.388Z,41024
2017-02-01T15:31:33.075Z,44224
2017-02-01T15:32:47.427Z,47968
2017-02-01T15:34:01.767Z,50752
2017-02-01T15:35:16.120Z,16396
2017-02-01T15:36:29.180Z,19584
2017-02-01T15:37:43.559Z,19104
2017-02-01T15:38:57.927Z,20064
2017-02-01T15:40:13.008Z,21056
2017-02-01T15:41:27.353Z,20832
2017-02-01T15:42:41.715Z,18304
2017-02-01T15:43:56.085Z,17696
2017-02-01T15:45:09.808Z,17856
2017-02-01T15:46:24.158Z,18752
2017-02-01T15:47:38.509Z,1252
2017-02-01T15:48:52.914Z,1760
2017-02-01T15:50:07.272Z,1604
2017-02-01T15:51:21.624Z,2184
2017-02-01T15:52:35.954Z,54336
2017-02-01T15:53:50.870Z,63008
2017-02-01T15:55:05.267Z,62912
2017-02-01T15:56:18.998Z,59200
2017-02-01T15:57:33.330Z,59200
2017-02-01T15:58:47.043Z,59616
2017-02-01T16:00:01.478Z,60608
2017-02-01T16:01:15.179Z,66080
2017-02-01T16:02:29.546Z,69088
2017-02-01T16:03:43.880Z,73280
2017-02-01T16:04:58.239Z,80032
2017-02-01T16:06:12.628Z,91904
2017-02-01T16:07:26.977Z,120448
2017-02-01T16:08:41.837Z,82336
2017-02-01T16:09:56.176Z,89984
2017-02-01T16:11:10.541Z,84832
2017-02-01T16:12:24.896Z,88096
2017-02-01T16:13:38.614Z,112512
2017-02-01T16:14:53.088Z,73888
2017-02-01T16:16:07.433Z,71648
2017-02-01T16:17:21.796Z,126592
2017-02-01T16:18:35.517Z,76448
2017-02-01T16:19:49.887Z,111808
2017-02-01T16:21:04.279Z,102688
2017-02-01T16:22:18.617Z,92480
2017-02-01T16:23:32.989Z,86080
2017-02-01T16:24:47.324Z,68096
2017-02-01T16:26:01.718Z,69184
2017-02-01T16:27:15.471Z,71776
2017-02-01T16:28:29.827Z,67104
2017-02-01T16:29:44.185Z,69952
2017-02-01T16:30:58.536Z,62784
2017-02-01T16:32:12.954Z,49312
2017-02-01T16:33:27.315Z,54048
2017-02-01T16:34:41.663Z,48576
2017-02-01T16:35:56.041Z,42560
2017-02-01T16:37:10.405Z,40672
2017-02-01T16:38:23.459Z,38304
2017-02-01T16:39:37.821Z,35776
2017-02-01T16:40:52.183Z,33760
2017-02-01T16:42:06.937Z,32352
2017-02-01T16:43:21.430Z,31424
2017-02-01T16:44:35.812Z,30016
2017-02-01T16:45:50.140Z,28544
2017-02-01T16:47:05.276Z,26656
2017-02-01T16:48:19.951Z,25376
2017-02-01T16:49:34.312Z,25312
2017-02-01T16:50:48.047Z,26112
2017-02-01T16:52:02.392Z,26336
2017-02-01T16:53:16.093Z,25568
2017-02-01T16:54:30.462Z,24192
2017-02-01T16:55:44.816Z,22784
2017-02-01T16:56:59.171Z,22240
2017-02-01T16:58:12.897Z,22944
2017-02-01T16:59:27.325Z,24000
2017-02-01T17:00:41.686Z,24864
2017-02-01T17:01:55.410Z,24576
2017-02-01T17:03:09.780Z,22784
2017-02-01T17:04:24.172Z,19840
2017-02-01T17:05:37.978Z,16516
2017-02-01T17:06:52.420Z,13808